11:17
Airports
Links
Donate
Help keep this website running!
PayPal
Bitcoin
METAR
KSGF 111052Z 19008KT 10SM CLR 00/M06 A3008 RMK AO2 SLP190 T00001056
Current Weather Conditions at KSGF
VFR 10:52:00 11-12-17
Automated station
Altimeter:30.08 hg
Temp:0.0°c 32°f
Dew point:-5.6°c 23°f
Wind:8 knots, 9.2 mph, 4 m/s, from 190°
Visibility:10.0 statute miles
(CLR) Clear
Past METAR reports
VFR 09:52:00 11-12-17
Automated station
Altimeter:30.09 hg
Temp:0.0°c 32°f
Dew point:-5.0°c 23°f
Wind:7 knots, 8.1 mph, 4 m/s, from 170°
Visibility:10.0 statute miles
(CLR) Clear
KSGF 110952Z 17007KT 10SM CLR 00/M05 A3009 RMK AO2 SLP195 T00001050
VFR 08:52:00 11-12-17
Automated station
Altimeter:30.13 hg
Temp:-0.6°c 32°f
Dew point:-5.6°c 23°f
Wind:5 knots, 5.8 mph, 3 m/s, from 200°
Visibility:10.0 statute miles
(CLR) Clear
KSGF 110852Z 20005KT 10SM CLR M01/M06 A3013 RMK AO2 SLP206 T10061056 56012
VFR 07:52:00 11-12-17
Automated station
Altimeter:30.14 hg
Temp:1.7°c 34°f
Dew point:-5.0°c 23°f
Wind:4 knots, 4.6 mph, 2 m/s, from 210°
Visibility:10.0 statute miles
(CLR) Clear
KSGF 110752Z 21004KT 10SM CLR 02/M05 A3014 RMK AO2 SLP209 T00171050
VFR 06:52:00 11-12-17
Automated station
Altimeter:30.14 hg
Temp:1.7°c 34°f
Dew point:-5.0°c 23°f
Wind:3 knots, 3.5 mph, 2 m/s, from 190°
Visibility:10.0 statute miles
(CLR) Clear
KSGF 110652Z 19003KT 10SM CLR 02/M05 A3014 RMK AO2 SLP211 T00171050
VFR 05:52:00 11-12-17
Automated station
Altimeter:30.16 hg
Temp:2.8°c 36°f
Dew point:-5.0°c 23°f
Wind:3 knots, 3.5 mph, 2 m/s, from 210°
Visibility:10.0 statute miles
(CLR) Clear
KSGF 110552Z 21003KT 10SM CLR 03/M05 A3016 RMK AO2 SLP218 T00281050 10083 20011 401331056 58001
TAF
KSGF 110526Z 1106/1206 24005KT P6SM SKC FM111200 21009KT P6SM SKC FM111500 23014G22KT P6SM FEW250 FM111700 26019G27KT P6SM SKC FM112000 29020G29KT P6SM FEW250 FM120000 32017G25KT P6SM SCT200
Forecast at KSGF
06:00 11-12-17 to 12:00 11-12-17
Wind:5 Knots from 240°
Visibility:6.21 statute miles
SKC Clear
FM 12:00 11-12-17 to 15:00 11-12-17
Wind:9 Knots from 210°
Visibility:6.21 statute miles
SKC Clear
FM 15:00 11-12-17 to 17:00 11-12-17
Wind:14 Knots from 230°
Visibility:6.21 statute miles
25000FEW A few
FM 17:00 11-12-17 to 20:00 11-12-17
Wind:19 Knots from 260°
Visibility:6.21 statute miles
SKC Clear
FM 20:00 11-12-17 to 00:00 12-12-17
Wind:20 Knots from 290°
Visibility:6.21 statute miles
25000FEW A few
FM 00:00 12-12-17 to 06:00 12-12-17
Wind:17 Knots from 320°
Visibility:6.21 statute miles
20000SCT Scattered